Time;durP1;ratioP1;P1;durP2;ratioP2;P2;SDS_P1;SDS_P2;PMS_P1;PMS_P2;Temp;Humidity;BMP_temperature;BMP_pressure;BME280_temperature;BME280_humidity;BME280_pressure;Samples;Min_cycle;Max_cycle;Signal;HPM_P1;HPM_P2
2021/08/20 00:09:02;;;;;;;6.32;2.80;;;;;;;18.43;79.63;100438.59;20735791;28;20053;-68
2021/08/20 00:19:04;;;;;;;4.70;2.40;;;;;;;18.20;80.74;100432.59;20736563;28;20057;-69
2021/08/20 00:29:05;;;;;;;6.95;3.03;;;;;;;18.31;80.45;100431.25;20736744;28;20045;-69
2021/08/20 00:39:07;;;;;;;5.03;2.30;;;;;;;18.36;80.00;100431.88;20749736;28;20069;-69
2021/08/20 00:49:10;;;;;;;6.40;2.85;;;;;;;18.30;80.09;100434.78;20750326;28;20058;-70
2021/08/20 00:59:13;;;;;;;5.78;2.90;;;;;;;18.22;80.74;100427.22;20749637;28;20049;-70
2021/08/20 01:09:17;;;;;;;7.38;3.00;;;;;;;18.29;80.23;100411.88;20747990;28;20042;-70
2021/08/20 01:19:18;;;;;;;6.82;3.20;;;;;;;18.26;80.54;100414.69;20747977;28;20049;-70
2021/08/20 01:29:21;;;;;;;4.97;2.90;;;;;;;18.19;80.19;100414.97;20747446;28;20677;-70
2021/08/20 01:39:22;;;;;;;6.22;2.90;;;;;;;18.17;80.84;100418.63;20744625;28;20053;-69
2021/08/20 01:49:24;;;;;;;6.13;2.95;;;;;;;18.14;80.34;100416.13;20744551;28;20049;-70
2021/08/20 01:59:27;;;;;;;5.88;2.80;;;;;;;18.13;80.72;100414.41;20744959;28;20053;-70
2021/08/20 02:09:30;;;;;;;5.38;2.90;;;;;;;18.07;81.00;100407.59;20743726;28;20100;-70
2021/08/20 02:19:33;;;;;;;4.57;2.78;;;;;;;17.99;81.40;100419.47;20742696;28;20571;-70
2021/08/20 02:29:35;;;;;;;6.30;3.00;;;;;;;17.99;80.55;100422.13;20742690;28;20041;-70
2021/08/20 02:39:37;;;;;;;5.55;2.80;;;;;;;17.86;82.00;100432.41;20740528;28;20451;-70
2021/08/20 02:49:38;;;;;;;6.95;2.95;;;;;;;17.91;81.50;100412.72;20741153;28;20065;-70
2021/08/20 02:59:40;;;;;;;4.80;2.78;;;;;;;17.89;81.92;100413.75;20739683;28;20558;-70
2021/08/20 03:09:46;;;;;;;6.13;3.00;;;;;;;17.87;81.67;100415.59;20739361;28;20042;-69
2021/08/20 03:19:47;;;;;;;7.72;2.90;;;;;;;17.76;82.61;100418.72;20739146;28;20157;-69
2021/08/20 03:29:49;;;;;;;5.97;3.15;;;;;;;17.70;82.59;100417.19;20738329;28;20459;-70
2021/08/20 03:39:51;;;;;;;5.47;3.10;;;;;;;17.56;83.39;100422.22;20736996;28;20053;-70
2021/08/20 03:49:53;;;;;;;7.03;3.92;;;;;;;17.56;83.53;100427.53;20737535;28;20058;-69
2021/08/20 03:59:56;;;;;;;7.60;4.15;;;;;;;17.43;84.05;100431.63;20737186;28;20057;-70
2021/08/20 04:10:00;;;;;;;7.15;4.22;;;;;;;17.49;83.85;100441.97;20746279;28;20042;-70
2021/08/20 04:20:02;;;;;;;6.13;3.85;;;;;;;17.55;83.55;100447.00;20752530;28;20669;-70
2021/08/20 04:30:04;;;;;;;8.10;4.13;;;;;;;17.49;83.55;100452.56;20738414;28;20459;-70
2021/08/20 04:40:07;;;;;;;7.25;4.05;;;;;;;17.43;83.78;100464.25;20750956;28;20103;-70
2021/08/20 04:50:10;;;;;;;7.10;4.38;;;;;;;17.51;83.34;100471.88;20750728;28;20046;-70
2021/08/20 05:00:12;;;;;;;6.63;4.32;;;;;;;17.56;83.48;100474.31;20749629;28;20467;-70
2021/08/20 05:10:14;;;;;;;7.28;4.25;;;;;;;17.65;83.02;100479.22;20676649;28;20057;-70
2021/08/20 05:20:16;;;;;;;7.22;4.40;;;;;;;17.65;82.67;100490.69;20684454;28;20101;-70
2021/08/20 05:30:18;;;;;;;7.85;4.70;;;;;;;17.76;82.33;100499.97;20667267;28;20492;-70
2021/08/20 05:40:20;;;;;;;8.95;4.50;;;;;;;17.78;82.05;100508.72;20666337;28;20051;-69
2021/08/20 05:50:22;;;;;;;6.85;4.65;;;;;;;18.02;80.64;100507.63;20664292;28;20050;-69
2021/08/20 06:00:25;;;;;;;8.32;4.70;;;;;;;18.11;80.57;100524.88;20662386;28;20708;-69
2021/08/20 06:10:27;;;;;;;8.00;5.05;;;;;;;18.47;79.18;100525.00;20661748;28;20050;-69
2021/08/20 06:20:29;;;;;;;8.18;4.53;;;;;;;18.78;77.72;100531.56;20662832;28;20101;-69
2021/08/20 06:30:31;;;;;;;7.50;4.70;;;;;;;19.14;76.56;100528.94;20662294;28;20101;-69
2021/08/20 06:40:33;;;;;;;8.65;4.38;;;;;;;19.37;75.15;100530.44;20661982;28;20043;-69
2021/08/20 06:50:35;;;;;;;8.50;4.10;;;;;;;19.56;74.08;100525.94;20661136;28;20047;-69
2021/08/20 07:00:36;;;;;;;8.02;4.20;;;;;;;19.63;72.96;100537.97;20658610;28;20042;-69
2021/08/20 07:10:39;;;;;;;6.93;4.05;;;;;;;19.71;69.36;100530.47;20697576;28;20041;-69
2021/08/20 07:20:40;;;;;;;5.97;3.67;;;;;;;19.65;70.23;100538.78;20723820;28;20085;-69
2021/08/20 07:30:42;;;;;;;8.40;3.30;;;;;;;19.75;66.90;100531.19;20659571;28;20050;-69
2021/08/20 07:40:44;;;;;;;7.20;3.05;;;;;;;19.83;64.13;100534.28;20701078;28;20485;-69
2021/08/20 07:50:47;;;;;;;5.85;2.97;;;;;;;20.08;60.38;100539.19;20740118;28;20108;-69
2021/08/20 08:00:49;;;;;;;7.00;3.30;;;;;;;20.24;61.01;100545.41;20738258;28;20107;-69
2021/08/20 08:10:51;;;;;;;5.13;3.08;;;;;;;20.04;61.67;100553.59;20729305;28;20046;-69
2021/08/20 08:20:53;;;;;;;5.85;3.38;;;;;;;20.03;63.89;100567.81;20656958;28;20046;-69
2021/08/20 08:30:56;;;;;;;6.57;3.33;;;;;;;20.21;63.05;100564.16;20656206;28;20093;-69
2021/08/20 08:40:57;;;;;;;5.72;3.70;;;;;;;20.49;61.30;100566.25;20655989;28;20416;-69
2021/08/20 08:51:18;;;;;;;6.43;3.28;;;;;;;20.72;60.28;100551.69;20657442;28;20047;-69
2021/08/20 09:01:30;;;;;;;7.32;3.22;;;;;;;21.05;60.37;100550.75;20669291;28;20046;-69
2021/08/20 09:11:33;;;;;;;7.75;3.00;;;;;;;21.38;57.38;100550.66;20684540;28;20104;-69
2021/08/20 09:21:35;;;;;;;5.60;3.00;;;;;;;21.92;57.55;100550.13;20750626;28;20489;-69
2021/08/20 09:31:50;;;;;;;5.75;3.05;;;;;;;21.73;55.66;100545.91;20749302;28;20496;-69
2021/08/20 09:42:10;;;;;;;6.85;2.80;;;;;;;22.28;54.69;100534.56;20749772;28;20042;-69
2021/08/20 09:52:26;;;;;;;6.78;2.80;;;;;;;22.48;53.43;100527.13;20741535;28;20503;-69
2021/08/20 10:02:29;;;;;;;4.85;2.60;;;;;;;22.71;53.58;100529.19;20777340;28;20053;-71
2021/08/20 10:12:31;;;;;;;6.25;3.17;;;;;;;22.68;52.75;100531.19;20744064;28;20058;-69
2021/08/20 10:22:34;;;;;;;7.20;2.97;;;;;;;23.68;49.75;100518.38;20743322;28;20056;-69
2021/08/20 10:32:36;;;;;;;5.70;2.58;;;;;;;23.68;49.39;100518.38;20743130;28;20104;-69
2021/08/20 10:42:41;;;;;;;5.97;2.75;;;;;;;24.28;47.64;100504.31;20742086;28;20072;-69
2021/08/20 10:52:47;;;;;;;6.90;2.90;;;;;;;24.63;46.56;100492.97;20742145;28;20054;-69
2021/08/20 11:02:54;;;;;;;4.22;2.63;;;;;;;25.08;44.31;100488.72;20740321;28;20053;-69
2021/08/20 11:12:57;;;;;;;5.20;2.92;;;;;;;25.22;45.34;100490.38;20739704;28;20383;-69
2021/08/20 11:23:08;;;;;;;6.77;2.80;;;;;;;24.37;46.00;100496.66;20795316;28;20148;-69
2021/08/20 11:33:19;;;;;;;7.00;2.78;;;;;;;23.75;49.99;100516.13;20793934;28;20073;-70
2021/08/20 11:43:23;;;;;;;8.13;2.90;;;;;;;23.59;48.75;100505.59;20706670;28;20126;-69
2021/08/20 11:53:26;;;;;;;6.63;3.03;;;;;;;23.74;48.65;100507.25;20738288;28;20631;-68
2021/08/20 12:03:28;;;;;;;5.65;2.72;;;;;;;23.86;48.08;100502.00;20737963;28;20049;-69
2021/08/20 12:13:30;;;;;;;7.65;3.08;;;;;;;23.73;48.15;100502.88;20706770;28;20053;-70
2021/08/20 12:23:32;;;;;;;6.32;3.10;;;;;;;23.99;49.29;100493.00;20656284;28;20046;-69
2021/08/20 12:33:34;;;;;;;6.28;2.55;;;;;;;23.55;49.66;100507.59;20669414;28;20555;-69
2021/08/20 12:43:38;;;;;;;5.47;2.60;;;;;;;23.59;49.07;100497.56;20670627;28;20050;-69
2021/08/20 12:53:40;;;;;;;4.30;2.53;;;;;;;23.55;49.52;100506.75;20670474;28;20755;-69
2021/08/20 13:03:41;;;;;;;7.05;3.00;;;;;;;23.89;48.82;100497.28;20669443;28;20054;-69
2021/08/20 13:13:44;;;;;;;5.05;2.63;;;;;;;23.64;47.25;100498.16;20700627;28;20076;-69
2021/08/20 13:23:48;;;;;;;4.75;2.67;;;;;;;23.71;45.74;100477.19;20748185;28;20049;-69
2021/08/20 13:33:49;;;;;;;5.03;2.30;;;;;;;24.19;46.01;100480.91;20746942;28;20050;-70
2021/08/20 13:43:51;;;;;;;8.45;2.90;;;;;;;24.67;42.65;100466.78;20747785;28;20459;-70
2021/08/20 13:53:53;;;;;;;5.10;2.80;;;;;;;24.76;42.09;100458.94;20746742;28;20411;-70
2021/08/20 14:03:55;;;;;;;5.30;2.50;;;;;;;25.11;42.42;100463.53;20745382;28;20050;-70
2021/08/20 14:13:57;;;;;;;6.68;2.55;;;;;;;24.94;43.19;100462.06;20710268;28;20053;-70
2021/08/20 14:23:59;;;;;;;6.05;2.33;;;;;;;25.01;42.47;100465.16;20663545;28;20105;-70
2021/08/20 14:34:01;;;;;;;4.35;2.42;;;;;;;25.01;42.48;100449.09;20664751;28;20182;-70
2021/08/20 14:44:03;;;;;;;4.55;2.63;;;;;;;24.74;43.94;100463.56;20742857;28;20467;-70
2021/08/20 14:54:05;;;;;;;3.90;2.15;;;;;;;24.62;43.89;100453.75;20741848;28;20050;-70
2021/08/20 15:04:06;;;;;;;4.13;2.25;;;;;;;24.69;43.93;100457.69;20740928;28;20050;-70
2021/08/20 15:14:10;;;;;;;4.15;2.30;;;;;;;24.79;44.08;100455.19;20696914;28;20047;-70
2021/08/20 15:24:30;;;;;;;4.28;2.35;;;;;;;24.79;43.14;100444.47;20658627;28;20046;-70
2021/08/20 15:34:32;;;;;;;5.93;2.15;;;;;;;24.90;41.94;100449.88;20657800;28;20046;-70
2021/08/20 15:44:36;;;;;;;4.60;2.25;;;;;;;24.77;41.79;100449.97;20657547;28;20419;-70
2021/08/20 15:54:37;;;;;;;4.70;2.00;;;;;;;24.83;42.10;100445.97;20657069;28;20050;-70
2021/08/20 16:04:39;;;;;;;4.95;2.60;;;;;;;24.66;42.07;100449.88;20673650;28;20499;-71
2021/08/20 16:14:42;;;;;;;4.65;2.15;;;;;;;24.69;41.58;100451.47;20712682;28;20416;-71
2021/08/20 16:24:43;;;;;;;3.80;2.28;;;;;;;24.57;43.29;100446.03;20687564;28;20468;-71
2021/08/20 16:34:45;;;;;;;4.47;2.28;;;;;;;24.71;42.21;100445.03;20679812;28;20042;-71
2021/08/20 16:44:47;;;;;;;5.43;2.50;;;;;;;24.76;42.96;100453.56;20693498;28;20101;-70
2021/08/20 16:54:50;;;;;;;4.00;1.98;;;;;;;24.75;43.60;100449.19;20670177;28;20053;-71
2021/08/20 17:04:54;;;;;;;5.07;2.20;;;;;;;24.67;44.05;100456.94;20668644;28;20050;-70
2021/08/20 17:14:56;;;;;;;6.83;2.87;;;;;;;24.62;44.00;100460.91;20709789;28;20046;-67
2021/08/20 17:24:58;;;;;;;4.35;2.25;;;;;;;24.40;45.77;100458.97;20748734;28;20045;-69
2021/08/20 17:35:00;;;;;;;4.88;2.33;;;;;;;24.16;47.18;100467.75;20747460;28;20103;-69
2021/08/20 17:45:04;;;;;;;4.88;2.30;;;;;;;23.82;47.77;100476.47;20747466;28;20054;-69
2021/08/20 17:55:06;;;;;;;;;;;;;;;23.65;50.38;100477.63;20747144;28;20050;-69
2021/08/20 18:05:08;;;;;;;6.00;2.67;;;;;;;23.13;53.86;100487.31;20745568;28;19976;-67
2021/08/20 18:15:11;;;;;;;8.65;2.85;;;;;;;22.58;56.09;100492.72;20700419;28;20601;-67
2021/08/20 18:25:12;;;;;;;6.25;2.90;;;;;;;21.99;58.54;100498.13;20662593;28;20050;-67
2021/08/20 18:35:14;;;;;;;4.68;2.35;;;;;;;21.52;59.36;100510.75;20662504;28;20054;-69
2021/08/20 18:45:16;;;;;;;5.90;3.15;;;;;;;21.25;61.06;100509.66;20662145;28;20051;-70
2021/08/20 18:55:19;;;;;;;5.97;3.08;;;;;;;20.97;62.79;100529.88;20660967;28;20523;-69
2021/08/20 19:05:21;;;;;;;6.28;2.70;;;;;;;20.47;63.49;100546.88;20660315;28;20105;-69
2021/08/20 19:15:23;;;;;;;4.78;2.85;;;;;;;20.18;64.78;100556.38;20705126;28;20464;-69
2021/08/20 19:25:25;;;;;;;6.78;2.97;;;;;;;20.02;65.42;100570.53;20740251;28;20050;-69
2021/08/20 19:35:27;;;;;;;5.43;3.03;;;;;;;19.84;66.87;100581.19;20738459;28;20500;-69
2021/08/20 19:45:29;;;;;;;8.60;4.03;;;;;;;19.65;67.74;100585.72;20739148;28;20116;-69
2021/08/20 19:55:31;;;;;;;5.82;2.78;;;;;;;19.52;67.27;100582.78;20738424;28;20041;-69
2021/08/20 20:05:33;;;;;;;7.03;2.90;;;;;;;19.30;68.39;100587.44;20737918;28;20096;-69
2021/08/20 20:15:34;;;;;;;5.07;3.10;;;;;;;19.13;69.48;100590.91;20689861;28;20042;-69
2021/08/20 20:25:36;;;;;;;5.55;3.22;;;;;;;18.99;69.99;100577.44;20657135;28;20104;-69
2021/08/20 20:35:38;;;;;;;8.70;3.30;;;;;;;18.89;70.35;100590.28;20655337;28;20058;-69
2021/08/20 20:45:40;;;;;;;5.63;3.60;;;;;;;18.88;70.54;100601.84;20655985;28;20046;-69
2021/08/20 20:55:42;;;;;;;6.20;3.35;;;;;;;18.55;72.12;100598.91;20685793;28;20050;-69
2021/08/20 21:05:44;;;;;;;5.80;3.67;;;;;;;18.31;73.94;100604.38;20749619;28;20054;-69
2021/08/20 21:15:46;;;;;;;5.30;3.67;;;;;;;18.14;74.28;100609.56;20749733;28;20049;-69
2021/08/20 21:25:49;;;;;;;6.78;4.10;;;;;;;17.97;74.27;100615.59;20748497;28;20049;-70
2021/08/20 21:35:51;;;;;;;6.47;4.50;;;;;;;17.61;76.14;100624.13;20747361;28;20085;-69
2021/08/20 21:45:53;;;;;;;6.13;4.18;;;;;;;17.54;76.58;100622.66;20746918;28;20127;-69
2021/08/20 21:55:55;;;;;;;7.43;5.15;;;;;;;17.44;77.19;100621.31;20746347;28;20049;-69
2021/08/20 22:05:57;;;;;;;10.00;5.05;;;;;;;17.39;76.61;100620.63;20744614;28;20045;-70
2021/08/20 22:15:59;;;;;;;9.70;5.20;;;;;;;17.18;77.02;100623.19;20743782;28;20058;-71
2021/08/20 22:26:00;;;;;;;7.85;5.20;;;;;;;17.25;77.05;100622.94;20743065;28;20050;-71
2021/08/20 22:36:02;;;;;;;8.05;4.95;;;;;;;16.98;78.27;100628.41;20741469;28;20140;-71
2021/08/20 22:46:05;;;;;;;7.57;5.07;;;;;;;16.96;78.52;100632.03;20741145;28;20645;-70
2021/08/20 22:56:07;;;;;;;7.38;4.70;;;;;;;17.07;77.42;100635.16;20740941;28;20500;-71
2021/08/20 23:06:09;;;;;;;6.68;4.63;;;;;;;17.12;77.45;100634.03;20739611;28;20046;-71
2021/08/20 23:16:10;;;;;;;7.82;5.03;;;;;;;17.00;78.01;100634.50;20738891;28;20057;-71
2021/08/20 23:26:12;;;;;;;10.13;4.60;;;;;;;16.92;78.20;100623.38;20740129;28;20488;-72
2021/08/20 23:36:14;;;;;;;9.15;4.63;;;;;;;17.13;76.96;100617.22;20738897;28;20095;-73
2021/08/20 23:46:15;;;;;;;8.35;4.35;;;;;;;17.30;76.21;100610.44;20738417;28;20045;-72
2021/08/20 23:56:17;;;;;;;6.85;4.55;;;;;;;17.27;76.16;100613.19;20738621;28;20050;-72
